Time;durP1;ratioP1;P1;durP2;ratioP2;P2;SDS_P1;SDS_P2;PMS_P1;PMS_P2;Temp;Humidity;BMP_temperature;BMP_pressure;BME280_temperature;BME280_humidity;BME280_pressure;Samples;Min_cycle;Max_cycle;Signal;HPM_P1;HPM_P2
2022/10/16 00:02:02;;;;;;;19.67;11.03;;;14.80;99.90;;;;;;4755041;30;20244;-80
2022/10/16 00:04:29;;;;;;;25.00;12.00;;;14.80;99.90;;;;;;4754832;30;20308;-79
2022/10/16 00:06:56;;;;;;;22.07;11.63;;;14.80;99.90;;;;;;4770737;30;20197;-78
2022/10/16 00:09:23;;;;;;;19.70;11.70;;;14.80;99.90;;;;;;4770796;30;20679;-79
2022/10/16 00:11:50;;;;;;;22.50;12.13;;;14.80;99.90;;;;;;4772914;24;20243;-79
2022/10/16 00:14:17;;;;;;;20.73;11.70;;;14.80;99.90;;;;;;4790033;29;20295;-79
2022/10/16 00:16:44;;;;;;;21.30;12.00;;;14.80;99.90;;;;;;4790500;29;20398;-79
2022/10/16 00:19:27;;;;;;;19.33;11.57;;;14.80;99.90;;;;;;4790592;29;20677;-80
2022/10/16 00:21:54;;;;;;;20.37;12.90;;;14.80;99.90;;;;;;4806438;29;20213;-79
2022/10/16 00:24:21;;;;;;;23.27;12.23;;;14.70;99.90;;;;;;4790387;29;20202;-80
2022/10/16 00:26:50;;;;;;;23.67;12.33;;;14.70;99.90;;;;;;4790110;29;20640;-80
2022/10/16 00:29:17;;;;;;;21.03;12.37;;;14.80;99.90;;;;;;4790458;29;20246;-80
2022/10/16 00:31:44;;;;;;;22.60;12.63;;;14.80;99.90;;;;;;4790588;29;20568;-80
2022/10/16 00:34:11;;;;;;;19.97;12.30;;;14.80;99.90;;;;;;4790148;29;20662;-80
2022/10/16 00:36:38;;;;;;;23.07;13.43;;;14.80;99.90;;;;;;4790313;29;20294;-80
2022/10/16 00:39:05;;;;;;;21.93;12.97;;;14.70;99.90;;;;;;4806357;29;20199;-79
2022/10/16 00:41:33;;;;;;;22.77;12.97;;;14.70;99.90;;;;;;4805599;24;20590;-79
2022/10/16 00:44:04;;;;;;;23.07;13.27;;;14.80;99.90;;;;;;4806418;29;20200;-80
2022/10/16 00:46:39;;;;;;;24.63;13.37;;;14.80;99.90;;;;;;4776089;29;20203;-79
2022/10/16 00:49:19;;;;;;;23.73;13.17;;;14.70;99.90;;;;;;4790983;29;20214;-82
2022/10/16 00:51:53;;;;;;;22.63;13.50;;;14.70;99.90;;;;;;4790290;29;20210;-82
2022/10/16 00:54:28;;;;;;;22.20;13.27;;;14.70;99.90;;;;;;4778789;30;20640;-82
2022/10/16 00:56:59;;;;;;;24.40;13.47;;;14.70;99.90;;;;;;4788705;30;20588;-81
2022/10/16 00:59:39;;;;;;;23.43;13.67;;;14.70;99.90;;;;;;4771859;30;20306;-82
2022/10/16 01:02:21;;;;;;;23.03;14.17;;;14.60;99.90;;;;;;4788519;30;20200;-82
2022/10/16 01:05:12;;;;;;;21.87;13.50;;;14.50;99.90;;;;;;4788696;29;20662;-81
2022/10/16 01:08:17;;;;;;;21.50;13.40;;;14.50;99.90;;;;;;4772538;29;20299;-82
2022/10/16 01:11:14;;;;;;;23.43;13.23;;;14.50;99.90;;;;;;4772628;30;20298;-82
2022/10/16 01:13:53;;;;;;;24.43;13.57;;;14.40;99.90;;;;;;4772548;30;20223;-81
2022/10/16 01:16:54;;;;;;;22.40;12.97;;;14.50;99.90;;;;;;4788561;30;20196;-82
2022/10/16 01:20:07;;;;;;;19.77;12.03;;;14.60;99.90;;;;;;4771953;30;20211;-82
2022/10/16 01:22:46;;;;;;;23.87;13.10;;;14.70;99.90;;;;;;4772313;30;20200;-81
2022/10/16 01:25:38;;;;;;;22.30;13.50;;;14.70;99.90;;;;;;4788337;30;20624;-82
2022/10/16 01:28:08;;;;;;;22.03;13.10;;;14.70;99.90;;;;;;4772032;30;20212;-82
2022/10/16 01:30:37;;;;;;;21.93;13.50;;;14.70;99.90;;;;;;4788746;30;20743;-82
2022/10/16 01:33:18;;;;;;;23.10;13.60;;;14.70;99.90;;;;;;4773781;29;20239;-82
2022/10/16 01:35:54;;;;;;;24.90;13.67;;;14.70;99.90;;;;;;4792141;29;20240;-83
2022/10/16 01:38:37;;;;;;;24.60;13.93;;;14.70;99.90;;;;;;4780626;30;20281;-80
2022/10/16 01:41:52;;;;;;;22.00;14.03;;;14.60;99.90;;;;;;4776238;30;20704;-82
2022/10/16 01:44:29;;;;;;;22.23;14.03;;;14.70;99.90;;;;;;4703929;30;20217;-82
2022/10/16 01:46:56;;;;;;;25.47;14.17;;;14.60;99.90;;;;;;4718679;30;20218;-83
2022/10/16 01:49:47;;;;;;;25.60;14.10;;;14.70;99.90;;;;;;4718576;30;20287;-81
2022/10/16 01:52:22;;;;;;;22.00;13.43;;;14.60;99.90;;;;;;4718503;30;20564;-83
2022/10/16 01:54:59;;;;;;;26.70;13.77;;;14.60;99.90;;;;;;4717673;30;20240;-83
2022/10/16 01:57:28;;;;;;;22.50;13.70;;;14.60;99.90;;;;;;4718569;30;20199;-82
2022/10/16 02:00:00;;;;;;;26.53;14.90;;;14.50;99.90;;;;;;4717981;30;20219;-82
2022/10/16 02:02:30;;;;;;;25.43;14.33;;;14.60;99.90;;;;;;4703740;30;20207;-82
2022/10/16 02:05:19;;;;;;;26.77;14.47;;;14.50;99.90;;;;;;4718073;30;20207;-82
2022/10/16 02:07:49;;;;;;;24.47;14.07;;;14.50;99.90;;;;;;4717955;30;20245;-81
2022/10/16 02:10:30;;;;;;;23.27;14.27;;;14.50;99.90;;;;;;4703339;30;20211;-82
2022/10/16 02:13:10;;;;;;;25.13;14.50;;;14.50;99.90;;;;;;4689229;30;20223;-82
2022/10/16 02:15:38;;;;;;;23.10;14.10;;;14.50;99.90;;;;;;4703315;30;20670;-81
2022/10/16 02:18:06;;;;;;;21.50;13.33;;;14.50;99.90;;;;;;4783160;24;20248;-83
2022/10/16 02:20:51;;;;;;;25.60;13.90;;;14.50;99.90;;;;;;4789721;30;20236;-81
2022/10/16 02:23:40;;;;;;;24.27;14.10;;;14.50;99.90;;;;;;4797551;24;20246;-81
2022/10/16 02:26:17;;;;;;;25.40;14.30;;;14.50;99.90;;;;;;4808907;29;20605;-82
2022/10/16 02:28:51;;;;;;;27.40;14.20;;;14.50;99.90;;;;;;4792673;29;20315;-82
2022/10/16 02:31:28;;;;;;;21.77;14.33;;;14.50;99.90;;;;;;4792996;29;20223;-80
2022/10/16 02:33:58;;;;;;;23.90;14.20;;;14.50;99.90;;;;;;4808793;29;20249;-82
2022/10/16 02:36:27;;;;;;;24.37;14.73;;;14.50;99.90;;;;;;4808816;29;20203;-81
2022/10/16 02:39:00;;;;;;;24.27;14.67;;;14.40;99.90;;;;;;4792492;29;20654;-83
2022/10/16 02:41:44;;;;;;;23.50;14.33;;;14.50;99.90;;;;;;4792092;29;20242;-81
2022/10/16 02:44:11;;;;;;;24.17;14.40;;;14.40;99.90;;;;;;4792088;29;20249;-82
2022/10/16 02:46:38;;;;;;;23.30;14.33;;;14.40;99.90;;;;;;4808338;29;20248;-84
2022/10/16 02:49:11;;;;;;;23.80;14.20;;;14.30;99.90;;;;;;4792005;29;20197;-83
2022/10/16 02:51:51;;;;;;;26.57;14.93;;;14.30;99.90;;;;;;4792425;29;20585;-82
2022/10/16 02:54:21;;;;;;;26.43;14.73;;;14.30;99.90;;;;;;4786509;29;20239;-82
2022/10/16 02:56:48;;;;;;;27.97;14.87;;;14.30;99.90;;;;;;4774462;30;20211;-82
2022/10/16 02:59:21;;;;;;;23.23;13.97;;;14.30;99.90;;;;;;4790304;30;20204;-82
2022/10/16 03:01:48;;;;;;;24.10;14.87;;;14.30;99.90;;;;;;4774126;30;20259;-82
2022/10/16 03:04:16;;;;;;;28.13;15.00;;;14.30;99.90;;;;;;4790197;29;20200;-82
2022/10/16 03:06:43;;;;;;;24.43;14.77;;;14.20;99.90;;;;;;4774334;30;20218;-82
2022/10/16 03:09:10;;;;;;;23.40;14.00;;;14.20;99.90;;;;;;4775097;30;20261;-82
2022/10/16 03:11:37;;;;;;;24.13;14.80;;;14.30;99.90;;;;;;4774384;30;20353;-80
2022/10/16 03:14:05;;;;;;;28.10;15.00;;;14.20;99.90;;;;;;4774014;30;20210;-81
2022/10/16 03:16:32;;;;;;;22.73;14.53;;;14.20;99.90;;;;;;4773838;30;20219;-82
2022/10/16 03:18:59;;;;;;;21.93;14.00;;;14.10;99.90;;;;;;4759599;30;20214;-82
2022/10/16 03:21:26;;;;;;;25.00;14.50;;;14.20;99.90;;;;;;4759228;30;20236;-82
2022/10/16 03:23:53;;;;;;;24.77;14.63;;;14.20;99.90;;;;;;4773790;30;20558;-82
2022/10/16 03:26:20;;;;;;;24.00;14.30;;;14.20;99.90;;;;;;4773968;30;20212;-82
2022/10/16 03:28:48;;;;;;;21.83;14.07;;;14.10;99.90;;;;;;4774107;30;20255;-81
2022/10/16 03:31:27;;;;;;;26.03;14.13;;;14.20;99.90;;;;;;4773651;29;20611;-82
2022/10/16 03:33:54;;;;;;;22.63;13.57;;;14.20;99.90;;;;;;4773670;30;20677;-82
2022/10/16 03:36:22;;;;;;;26.30;14.37;;;14.10;99.90;;;;;;4773193;30;20223;-83
2022/10/16 03:38:54;;;;;;;25.47;14.47;;;14.20;99.90;;;;;;4773591;30;20302;-82
2022/10/16 03:41:22;;;;;;;24.90;14.13;;;14.20;99.90;;;;;;4789715;30;20278;-83
2022/10/16 03:43:49;;;;;;;22.63;13.90;;;14.20;99.90;;;;;;4773594;30;20243;-81
2022/10/16 03:46:16;;;;;;;22.63;13.97;;;14.20;99.90;;;;;;4789609;30;20200;-83
2022/10/16 03:48:46;;;;;;;26.00;14.50;;;14.20;99.90;;;;;;4773061;30;20732;-81
2022/10/16 03:51:13;;;;;;;21.87;13.23;;;14.10;99.90;;;;;;4789280;29;20208;-81
2022/10/16 03:53:55;;;;;;;20.90;13.23;;;14.10;99.90;;;;;;4773398;30;20290;-82
2022/10/16 03:56:23;;;;;;;20.80;13.60;;;14.10;99.90;;;;;;4773126;29;20248;-82
2022/10/16 03:58:57;;;;;;;22.27;14.17;;;14.10;99.90;;;;;;4773424;30;20212;-82
2022/10/16 04:01:48;;;;;;;25.23;13.03;;;14.10;99.90;;;;;;4772935;30;20335;-81
2022/10/16 04:04:17;;;;;;;21.80;13.43;;;14.10;99.90;;;;;;4796143;24;20318;-82
2022/10/16 04:07:30;;;;;;;25.43;13.60;;;14.10;99.90;;;;;;4772624;30;20192;-83
2022/10/16 04:10:03;;;;;;;23.80;13.80;;;14.10;99.90;;;;;;4788745;29;20192;-83
2022/10/16 04:12:31;;;;;;;22.17;13.10;;;14.10;99.90;;;;;;4791331;30;20208;-82
2022/10/16 04:14:59;;;;;;;24.07;13.77;;;14.00;99.90;;;;;;4789280;29;20204;-83
2022/10/16 04:17:29;;;;;;;22.40;13.47;;;14.10;99.90;;;;;;4758823;30;20545;-82
2022/10/16 04:19:56;;;;;;;19.20;12.90;;;14.00;99.90;;;;;;4772087;30;20212;-81
2022/10/16 04:22:23;;;;;;;23.70;13.43;;;14.00;99.90;;;;;;4772455;30;20233;-83
2022/10/16 04:24:50;;;;;;;26.97;13.67;;;13.90;99.90;;;;;;4772819;30;20205;-82
2022/10/16 04:27:20;;;;;;;22.47;13.97;;;13.90;99.90;;;;;;4788450;29;20254;-82
2022/10/16 04:30:00;;;;;;;23.30;13.93;;;14.00;99.90;;;;;;4788793;30;20669;-82
2022/10/16 04:32:30;;;;;;;21.00;12.50;;;14.00;99.90;;;;;;4788671;29;20631;-83
2022/10/16 04:34:59;;;;;;;20.47;12.70;;;14.00;99.90;;;;;;4772290;30;20235;-83
2022/10/16 04:37:30;;;;;;;21.27;14.03;;;13.90;99.90;;;;;;4772344;30;20204;-83
2022/10/16 04:39:57;;;;;;;21.90;13.23;;;13.90;99.90;;;;;;4788529;29;20255;-82
2022/10/16 04:42:25;;;;;;;21.90;13.43;;;14.00;99.90;;;;;;4772183;30;20231;-82
2022/10/16 04:44:52;;;;;;;22.77;13.23;;;14.00;99.90;;;;;;4771900;30;20209;-81
2022/10/16 04:47:23;;;;;;;26.43;14.07;;;13.90;99.90;;;;;;4788142;29;20208;-82
2022/10/16 04:49:51;;;;;;;21.27;13.73;;;13.90;99.90;;;;;;4772187;30;20205;-81
2022/10/16 04:52:26;;;;;;;21.23;13.43;;;13.90;99.90;;;;;;4772158;30;20198;-82
2022/10/16 04:55:00;;;;;;;23.90;13.40;;;13.80;99.90;;;;;;4767846;30;20280;-82
2022/10/16 04:57:30;;;;;;;21.83;13.67;;;13.80;99.90;;;;;;4754199;30;20625;-82
2022/10/16 04:59:57;;;;;;;23.43;13.57;;;13.80;99.90;;;;;;4754409;30;20299;-80
2022/10/16 05:02:24;;;;;;;22.60;14.00;;;13.70;99.90;;;;;;4754375;30;20240;-79
2022/10/16 05:04:52;;;;;;;22.43;13.27;;;13.70;99.90;;;;;;4754226;30;20244;-79
2022/10/16 05:07:28;;;;;;;21.53;12.43;;;13.70;99.90;;;;;;4753798;30;20221;-81
2022/10/16 05:09:56;;;;;;;22.87;13.57;;;13.70;99.90;;;;;;4770489;30;20597;-81
2022/10/16 05:12:23;;;;;;;23.00;13.50;;;13.70;99.90;;;;;;4754147;30;20310;-80
2022/10/16 05:14:51;;;;;;;23.07;13.27;;;13.50;99.90;;;;;;4754121;30;20646;-79
2022/10/16 05:17:18;;;;;;;22.20;13.20;;;13.50;99.90;;;;;;4753840;30;20212;-79
2022/10/16 05:19:45;;;;;;;21.60;13.90;;;13.50;99.90;;;;;;4753906;30;20233;-79
2022/10/16 05:22:12;;;;;;;21.80;13.10;;;13.50;99.90;;;;;;4754170;30;20227;-82
2022/10/16 05:24:41;;;;;;;22.30;13.33;;;13.50;99.90;;;;;;4753752;30;20282;-81
2022/10/16 05:27:09;;;;;;;20.63;13.00;;;13.50;99.90;;;;;;4753729;30;20302;-82
2022/10/16 05:29:37;;;;;;;21.47;13.20;;;13.50;99.90;;;;;;4769958;30;20217;-82
2022/10/16 05:32:04;;;;;;;21.43;13.33;;;13.50;99.90;;;;;;4754124;30;20201;-81
2022/10/16 05:34:36;;;;;;;20.60;13.00;;;13.50;99.90;;;;;;4753858;30;20221;-82
2022/10/16 05:37:03;;;;;;;22.53;13.23;;;13.40;99.90;;;;;;4769901;30;20273;-81
2022/10/16 05:39:30;;;;;;;24.40;13.33;;;13.40;99.90;;;;;;4769726;30;20217;-81
2022/10/16 05:41:57;;;;;;;24.43;13.77;;;13.40;99.90;;;;;;4753706;30;20737;-82
2022/10/16 05:44:24;;;;;;;21.20;13.10;;;13.40;99.90;;;;;;4769683;30;20197;-81
2022/10/16 05:46:51;;;;;;;24.77;13.67;;;13.40;99.90;;;;;;4753771;30;20551;-83
2022/10/16 05:49:18;;;;;;;26.90;13.73;;;13.40;99.90;;;;;;4760964;30;20213;-81
2022/10/16 05:51:45;;;;;;;22.33;13.67;;;13.30;99.90;;;;;;4769801;30;20193;-82
2022/10/16 05:54:19;;;;;;;20.77;13.10;;;13.20;99.90;;;;;;4753939;30;20197;-80
2022/10/16 05:56:46;;;;;;;21.73;13.33;;;13.30;99.90;;;;;;4753755;30;20348;-81
2022/10/16 05:59:13;;;;;;;22.17;13.47;;;13.30;99.90;;;;;;4753735;30;20209;-80
2022/10/16 06:01:53;;;;;;;22.53;13.67;;;13.30;99.90;;;;;;4753918;30;20221;-80
2022/10/16 06:04:26;;;;;;;21.43;13.10;;;13.30;99.90;;;;;;4750083;30;20291;-80
2022/10/16 06:07:33;;;;;;;24.23;13.53;;;13.20;99.90;;;;;;4750632;30;20281;-82
2022/10/16 06:10:00;;;;;;;23.63;13.10;;;13.30;99.90;;;;;;4749435;30;20217;-81
2022/10/16 06:12:29;;;;;;;23.20;13.83;;;13.30;99.90;;;;;;4750595;30;20224;-81
2022/10/16 06:15:02;;;;;;;21.03;13.20;;;13.30;99.90;;;;;;4750344;30;20210;-81
2022/10/16 06:17:29;;;;;;;21.83;13.10;;;13.30;99.90;;;;;;4750985;30;20256;-81
2022/10/16 06:20:00;;;;;;;23.60;13.63;;;13.40;99.90;;;;;;4755345;30;20197;-81
2022/10/16 06:22:33;;;;;;;21.27;13.63;;;13.40;99.90;;;;;;4754416;30;20223;-80
2022/10/16 06:25:00;;;;;;;23.63;13.63;;;13.50;99.90;;;;;;4754064;30;20218;-80
2022/10/16 06:27:27;;;;;;;22.73;13.37;;;13.60;99.90;;;;;;4754080;30;20210;-80
2022/10/16 06:29:58;;;;;;;23.23;12.90;;;13.60;99.90;;;;;;4753814;30;20212;-81
2022/10/16 06:32:27;;;;;;;21.40;13.43;;;13.70;99.90;;;;;;4754824;30;20197;-80
2022/10/16 06:34:54;;;;;;;23.57;13.20;;;13.70;99.90;;;;;;4753712;30;20210;-80
2022/10/16 06:37:22;;;;;;;21.03;12.53;;;13.80;99.90;;;;;;4753870;30;20619;-81
2022/10/16 06:39:53;;;;;;;26.70;13.50;;;13.90;99.90;;;;;;4789558;24;20305;-81
2022/10/16 06:42:20;;;;;;;22.30;13.63;;;13.90;99.90;;;;;;4789763;30;20704;-81
2022/10/16 06:44:47;;;;;;;20.47;13.10;;;13.90;99.90;;;;;;4790734;29;20211;-82
2022/10/16 06:47:16;;;;;;;25.03;13.27;;;14.10;99.90;;;;;;4810647;24;20809;-81
2022/10/16 06:49:44;;;;;;;20.50;13.10;;;14.10;99.90;;;;;;4808144;29;20221;-80
2022/10/16 06:52:54;;;;;;;20.53;12.50;;;14.10;99.90;;;;;;4793716;29;20217;-81
2022/10/16 06:55:25;;;;;;;22.87;12.53;;;14.20;99.90;;;;;;4737164;30;20232;-81
2022/10/16 06:57:51;;;;;;;23.47;12.87;;;14.30;99.90;;;;;;4737973;30;20303;-80
2022/10/16 07:00:31;;;;;;;21.90;12.90;;;14.40;99.90;;;;;;4752873;30;20216;-80
2022/10/16 07:02:58;;;;;;;19.67;13.03;;;14.30;99.90;;;;;;4737403;30;20288;-81
2022/10/16 07:05:27;;;;;;;21.80;13.00;;;14.40;99.90;;;;;;4737601;30;20234;-79
2022/10/16 07:07:58;;;;;;;22.27;14.00;;;14.50;99.90;;;;;;4737860;30;20243;-80
2022/10/16 07:10:28;;;;;;;23.13;13.13;;;14.60;99.90;;;;;;4737766;30;20205;-81
2022/10/16 07:12:55;;;;;;;22.63;13.67;;;14.70;99.90;;;;;;4738337;30;20241;-80
2022/10/16 07:15:30;;;;;;;20.13;12.17;;;14.80;99.90;;;;;;4737220;30;20304;-80
2022/10/16 07:17:57;;;;;;;20.93;12.43;;;14.90;99.90;;;;;;4752401;30;20209;-80
2022/10/16 07:20:23;;;;;;;19.73;12.63;;;15.00;99.90;;;;;;4737745;30;20214;-80
2022/10/16 07:22:51;;;;;;;21.33;12.63;;;15.10;99.90;;;;;;4752159;30;20226;-80
2022/10/16 07:25:18;;;;;;;19.60;12.10;;;15.20;99.90;;;;;;4737852;30;20703;-80
2022/10/16 07:27:45;;;;;;;16.47;11.40;;;15.20;99.90;;;;;;4737400;30;20210;-80
2022/10/16 07:30:12;;;;;;;19.27;12.07;;;15.20;99.90;;;;;;4736948;30;20243;-80
2022/10/16 07:32:39;;;;;;;22.07;12.30;;;15.30;99.90;;;;;;4770497;30;20200;-80
2022/10/16 07:35:09;;;;;;;20.13;11.70;;;15.40;99.90;;;;;;4773729;30;20233;-80
2022/10/16 07:37:36;;;;;;;18.73;12.27;;;15.40;99.90;;;;;;4789482;30;20356;-79
2022/10/16 07:40:04;;;;;;;19.73;12.10;;;15.50;99.90;;;;;;4789481;30;20184;-80
2022/10/16 07:42:31;;;;;;;19.43;11.97;;;15.50;99.90;;;;;;4773368;30;20301;-80
2022/10/16 07:44:58;;;;;;;18.83;11.63;;;15.50;99.90;;;;;;4773663;30;20231;-80
2022/10/16 07:47:25;;;;;;;18.70;11.60;;;15.60;99.90;;;;;;4773254;30;20243;-81
2022/10/16 07:49:52;;;;;;;17.57;11.47;;;15.90;99.90;;;;;;4773479;30;20211;-80
2022/10/16 07:52:22;;;;;;;20.37;11.17;;;16.30;99.90;;;;;;4773292;30;20212;-81
2022/10/16 07:54:49;;;;;;;17.10;10.90;;;17.10;99.90;;;;;;4773340;30;20208;-80
2022/10/16 07:57:19;;;;;;;21.03;12.00;;;17.60;99.90;;;;;;4772885;30;20697;-80
2022/10/16 07:59:47;;;;;;;18.03;11.37;;;17.90;99.90;;;;;;4773268;30;20217;-80
2022/10/16 08:02:14;;;;;;;17.40;11.10;;;18.20;99.90;;;;;;4789436;30;20293;-80
2022/10/16 08:04:41;;;;;;;17.20;11.03;;;18.60;99.90;;;;;;4773226;30;20204;-80
2022/10/16 08:07:08;;;;;;;19.00;10.80;;;18.90;99.90;;;;;;4789960;29;20238;-80
2022/10/16 08:09:35;;;;;;;17.57;10.97;;;19.10;99.90;;;;;;4773313;30;20217;-81
2022/10/16 08:12:02;;;;;;;19.43;10.70;;;19.50;99.90;;;;;;4772944;30;20215;-80
2022/10/16 08:14:29;;;;;;;20.20;11.07;;;19.50;99.90;;;;;;4788960;30;20211;-80
2022/10/16 08:16:56;;;;;;;17.57;10.50;;;19.50;99.90;;;;;;4789518;30;20204;-81
2022/10/16 08:19:23;;;;;;;30.27;12.03;;;19.50;99.90;;;;;;4772582;30;20208;-82
2022/10/16 08:21:50;;;;;;;17.77;11.10;;;19.60;99.90;;;;;;4775147;30;20577;-80
2022/10/16 08:24:17;;;;;;;28.00;11.37;;;20.00;99.90;;;;;;4789105;30;20208;-78
2022/10/16 08:26:47;;;;;;;19.20;10.30;;;20.40;99.90;;;;;;4772951;30;20212;-81
2022/10/16 08:29:14;;;;;;;16.40;9.77;;;20.60;99.90;;;;;;4789219;30;20204;-80
2022/10/16 08:31:41;;;;;;;16.37;10.30;;;20.50;99.90;;;;;;4788481;30;20207;-78
2022/10/16 08:34:08;;;;;;;14.97;10.13;;;20.50;99.90;;;;;;4772365;30;20208;-78
2022/10/16 08:36:35;;;;;;;20.83;10.37;;;20.40;99.90;;;;;;4772238;30;20245;-79
2022/10/16 08:39:08;;;;;;;16.73;9.97;;;20.70;99.90;;;;;;4773296;30;20573;-79
2022/10/16 08:41:53;;;;;;;17.73;9.70;;;20.60;99.90;;;;;;4788312;30;20693;-80
2022/10/16 08:44:29;;;;;;;17.23;9.70;;;20.60;99.90;;;;;;4772572;30;20208;-79
2022/10/16 08:47:06;;;;;;;17.07;9.90;;;20.30;99.90;;;;;;4772954;30;20235;-79
2022/10/16 08:49:32;;;;;;;16.27;9.90;;;19.90;99.90;;;;;;4772688;30;20212;-79
2022/10/16 08:52:00;;;;;;;16.17;10.07;;;19.10;99.90;;;;;;4788552;29;20199;-78
2022/10/16 08:54:41;;;;;;;14.50;9.83;;;18.90;99.90;;;;;;4772501;30;20547;-79
2022/10/16 08:57:18;;;;;;;16.20;10.70;;;18.70;99.90;;;;;;4787282;29;20678;-80
2022/10/16 08:59:51;;;;;;;15.70;10.10;;;18.50;99.90;;;;;;4772092;30;20224;-80
2022/10/16 09:02:44;;;;;;;16.93;10.07;;;18.50;99.90;;;;;;4772344;30;20242;-79
2022/10/16 09:05:32;;;;;;;19.23;9.90;;;18.40;99.90;;;;;;4771768;30;20574;-80
2022/10/16 09:08:27;;;;;;;17.03;10.10;;;18.40;99.90;;;;;;4757403;30;20219;-79
2022/10/16 09:11:26;;;;;;;14.83;9.80;;;18.40;99.90;;;;;;4788444;29;20252;-79
2022/10/16 09:14:36;;;;;;;16.13;10.37;;;18.40;99.90;;;;;;4788306;30;20212;-80
2022/10/16 09:17:48;;;;;;;16.40;10.33;;;18.60;99.90;;;;;;4772422;30;20240;-80
2022/10/16 09:20:32;;;;;;;15.77;9.43;;;18.90;99.90;;;;;;4787835;30;20196;-79
2022/10/16 09:23:05;;;;;;;15.00;9.50;;;19.40;99.90;;;;;;4788416;29;20573;-78
2022/10/16 09:25:35;;;;;;;13.53;8.90;;;19.90;99.90;;;;;;4787211;30;20243;-81
2022/10/16 09:28:20;;;;;;;16.13;9.53;;;20.00;99.90;;;;;;4772061;30;20216;-80
2022/10/16 09:30:50;;;;;;;15.70;9.47;;;20.20;99.90;;;;;;4788285;30;20293;-79
2022/10/16 09:33:21;;;;;;;16.90;9.50;;;20.40;99.90;;;;;;4788676;30;20235;-79
2022/10/16 09:35:54;;;;;;;13.87;9.50;;;20.60;99.90;;;;;;4772148;30;20224;-79
2022/10/16 09:38:28;;;;;;;13.30;9.43;;;21.10;99.90;;;;;;4788157;29;20215;-80
2022/10/16 09:41:25;;;;;;;17.80;9.33;;;21.70;99.90;;;;;;4771754;30;20376;-80
2022/10/16 09:44:23;;;;;;;15.70;9.53;;;22.30;99.90;;;;;;4782832;30;20231;-79
2022/10/16 09:47:02;;;;;;;17.23;8.90;;;22.60;99.90;;;;;;4765638;30;20233;-80
2022/10/16 09:49:29;;;;;;;13.93;9.57;;;23.00;99.90;;;;;;4769919;30;20201;-80
2022/10/16 09:52:14;;;;;;;14.23;9.50;;;22.60;99.90;;;;;;4769664;30;20197;-79
2022/10/16 09:54:55;;;;;;;15.00;9.43;;;22.30;99.90;;;;;;4772351;30;20270;-84
2022/10/16 09:57:22;;;;;;;13.93;9.40;;;22.40;99.90;;;;;;4773097;30;20223;-75
2022/10/16 09:59:52;;;;;;;15.30;10.00;;;22.50;99.90;;;;;;4772476;30;20211;-79
2022/10/16 10:02:38;;;;;;;14.53;9.50;;;22.50;99.90;;;;;;4772564;30;20229;-81
2022/10/16 10:05:17;;;;;;;12.97;9.53;;;22.70;99.90;;;;;;4772844;30;20692;-79
2022/10/16 10:07:47;;;;;;;14.10;9.20;;;22.20;99.90;;;;;;4772024;30;20243;-81
2022/10/16 10:10:28;;;;;;;16.03;9.67;;;22.20;99.90;;;;;;4771837;30;20233;-82
2022/10/16 10:13:29;;;;;;;13.67;9.37;;;21.90;99.90;;;;;;4772953;30;20205;-82
2022/10/16 10:16:46;;;;;;;15.87;9.07;;;21.80;99.90;;;;;;4764259;30;20581;-81
2022/10/16 10:19:19;;;;;;;12.50;8.63;;;22.20;99.90;;;;;;4772121;30;20253;-80
2022/10/16 10:21:47;;;;;;;12.77;8.47;;;22.40;99.90;;;;;;4772479;30;20236;-81
2022/10/16 10:24:16;;;;;;;13.27;8.73;;;22.60;99.90;;;;;;4772282;30;20225;-87
2022/10/16 10:27:08;;;;;;;13.80;9.10;;;22.70;99.90;;;;;;4772079;30;20212;-79
2022/10/16 10:29:40;;;;;;;12.70;8.80;;;22.80;99.90;;;;;;4772242;30;20225;-83
2022/10/16 10:32:10;;;;;;;14.57;8.90;;;22.60;99.90;;;;;;4771933;30;20209;-87
2022/10/16 10:35:14;;;;;;;16.03;9.30;;;22.80;99.90;;;;;;4772146;30;20209;-87
2022/10/16 10:37:53;;;;;;;12.53;8.70;;;23.20;99.90;;;;;;4772031;30;20205;-85
2022/10/16 10:40:44;;;;;;;14.87;8.87;;;23.60;99.90;;;;;;4773386;30;20201;-85
2022/10/16 10:43:40;;;;;;;12.40;9.10;;;23.70;99.90;;;;;;4780389;30;20232;-82
2022/10/16 10:46:18;;;;;;;11.57;8.60;;;23.60;99.90;;;;;;4756058;30;20205;-90
2022/10/16 10:49:19;;;;;;;15.60;9.00;;;23.20;99.90;;;;;;4768882;30;20610;-89
2022/10/16 10:52:22;;;;;;;12.33;8.40;;;22.90;99.90;;;;;;4741176;30;20209;-83
2022/10/16 10:55:06;;;;;;;14.23;9.07;;;22.90;99.90;;;;;;4741378;30;20200;-84
2022/10/16 10:58:07;;;;;;;12.63;8.80;;;22.50;99.90;;;;;;4755576;30;20257;-83
2022/10/16 11:01:13;;;;;;;13.13;8.63;;;22.40;99.90;;;;;;4756058;30;20310;-86
2022/10/16 11:04:05;;;;;;;15.47;9.10;;;22.40;99.90;;;;;;4773332;29;20577;-85
2022/10/16 11:09:41;;;;;;;11.57;8.17;;;22.30;99.90;;;;;;4964922;24;20638;-83
2022/10/16 11:15:20;;;;;;;11.23;7.97;;;22.90;99.90;;;;;;4808399;29;20282;-82
2022/10/16 11:18:08;;;;;;;13.00;8.27;;;23.10;99.90;;;;;;4792621;29;20574;-84
2022/10/16 11:20:41;;;;;;;12.60;8.83;;;23.00;99.90;;;;;;4792137;29;20279;-82
2022/10/16 11:23:24;;;;;;;13.83;9.00;;;23.00;99.90;;;;;;4792307;29;20223;-86
2022/10/16 11:25:59;;;;;;;12.50;8.77;;;22.70;99.90;;;;;;4791946;29;20203;-86
2022/10/16 11:28:59;;;;;;;13.50;8.13;;;22.30;99.90;;;;;;4807994;29;20202;-83
2022/10/16 11:32:06;;;;;;;11.50;8.00;;;22.30;99.90;;;;;;4808604;29;20199;-85
2022/10/16 11:35:07;;;;;;;16.43;8.50;;;22.90;99.90;;;;;;4792209;29;20196;-86
2022/10/16 11:53:50;;;;;;;11.97;7.87;;;22.30;99.90;;;;;;4788150;30;20595;-79
2022/10/16 11:56:22;;;;;;;12.80;8.20;;;22.80;99.90;;;;;;4768158;29;20212;-77
2022/10/16 11:59:02;;;;;;;10.43;7.50;;;23.40;99.90;;;;;;4773326;30;20231;-80
2022/10/16 12:02:01;;;;;;;13.90;8.33;;;23.90;99.90;;;;;;4773948;30;20201;-80
2022/10/16 12:04:46;;;;;;;12.18;8.40;;;24.80;99.90;;;;;;4758197;30;20228;-81
2022/10/16 12:07:18;;;;;;;12.30;8.20;;;25.40;99.90;;;;;;4773038;29;20300;-80
2022/10/16 12:09:45;;;;;;;12.70;8.10;;;25.20;99.90;;;;;;4773105;30;20222;-82
2022/10/16 12:12:38;;;;;;;11.85;8.13;;;25.60;99.90;;;;;;4773355;30;20231;-82
2022/10/16 12:15:05;;;;;;;11.23;7.85;;;25.30;99.90;;;;;;4789125;30;20200;-79
2022/10/16 12:17:52;;;;;;;12.20;8.18;;;24.60;99.90;;;;;;4773421;30;20243;-83
2022/10/16 12:20:30;;;;;;;13.65;8.48;;;24.10;99.90;;;;;;4788813;30;20200;-80
2022/10/16 12:23:04;;;;;;;12.75;8.40;;;24.30;99.90;;;;;;4773384;30;20682;-86
2022/10/16 12:25:54;;;;;;;14.27;8.65;;;23.70;99.90;;;;;;4771918;30;20621;-84
2022/10/16 12:28:26;;;;;;;12.13;8.60;;;23.50;99.90;;;;;;4772691;30;20204;-79
2022/10/16 12:31:00;;;;;;;13.47;8.27;;;23.10;99.90;;;;;;4772336;30;20216;-82
2022/10/16 12:33:48;;;;;;;11.93;8.63;;;22.60;99.90;;;;;;4788346;29;20288;-76
2022/10/16 12:36:30;;;;;;;16.03;8.80;;;22.20;99.90;;;;;;4788532;30;20215;-86
2022/10/16 12:38:58;;;;;;;11.83;8.13;;;21.70;99.90;;;;;;4771635;30;20208;-83
2022/10/16 12:41:34;;;;;;;12.27;8.03;;;21.50;99.90;;;;;;4772557;30;20625;-77
2022/10/16 12:44:02;;;;;;;12.53;8.20;;;21.40;99.90;;;;;;4788489;30;20594;-77
2022/10/16 12:46:29;;;;;;;11.53;8.20;;;21.30;99.90;;;;;;4772392;30;20213;-78
2022/10/16 12:49:13;;;;;;;13.10;7.70;;;21.40;99.90;;;;;;4772289;30;20212;-78
2022/10/16 12:51:42;;;;;;;12.43;8.00;;;21.20;99.90;;;;;;4771813;29;20311;-81
2022/10/16 12:54:16;;;;;;;11.37;8.27;;;21.10;99.90;;;;;;4772071;30;20204;-79
2022/10/16 12:57:07;;;;;;;11.20;7.87;;;20.80;99.90;;;;;;4772178;29;20232;-79
2022/10/16 12:59:45;;;;;;;11.60;8.10;;;20.70;99.90;;;;;;4771995;30;20705;-78
2022/10/16 13:02:34;;;;;;;13.40;7.80;;;20.70;99.90;;;;;;4772119;30;20204;-78
2022/10/16 13:05:23;;;;;;;12.37;7.93;;;20.70;99.90;;;;;;4787952;30;20236;-80
2022/10/16 13:08:14;;;;;;;14.67;8.20;;;20.90;99.90;;;;;;4771711;30;20249;-80
2022/10/16 13:11:02;;;;;;;12.27;8.20;;;20.80;99.90;;;;;;4788162;29;20630;-78
2022/10/16 13:13:38;;;;;;;11.77;7.40;;;20.80;99.90;;;;;;4771440;30;20593;-76
2022/10/16 13:16:35;;;;;;;11.10;7.03;;;20.70;99.90;;;;;;4787949;29;20599;-77
2022/10/16 13:19:30;;;;;;;13.07;7.30;;;20.50;99.90;;;;;;4771438;30;20730;-77
2022/10/16 13:22:30;;;;;;;11.73;7.60;;;20.40;99.90;;;;;;4771769;30;20204;-77
2022/10/16 13:25:36;;;;;;;11.50;7.37;;;20.20;99.90;;;;;;4771525;30;20600;-76
2022/10/16 13:28:13;;;;;;;9.23;7.13;;;20.10;99.90;;;;;;4715536;30;20223;-77
2022/10/16 13:30:42;;;;;;;15.00;7.90;;;20.10;99.90;;;;;;4718625;30;20551;-79
2022/10/16 13:33:27;;;;;;;12.83;8.27;;;20.00;99.90;;;;;;4704434;30;20219;-79
2022/10/16 13:35:55;;;;;;;12.27;7.80;;;20.00;99.90;;;;;;4703963;30;20728;-76